createdAt,value
2019-03-31T00:01:07.574Z,12.10
2019-03-31T00:03:25.659Z,12.10
2019-03-31T00:05:54.128Z,12.00
2019-03-31T00:08:22.628Z,12.00
2019-03-31T00:10:51.096Z,12.00
2019-03-31T00:13:21.296Z,12.00
2019-03-31T00:15:49.785Z,12.10
2019-03-31T00:18:18.259Z,12.10
2019-03-31T00:20:46.720Z,12.10
2019-03-31T00:23:15.277Z,12.20
2019-03-31T00:25:45.449Z,12.10
2019-03-31T00:28:14.003Z,12.10
2019-03-31T00:30:42.514Z,12.20
2019-03-31T00:33:11.026Z,12.10
2019-03-31T00:35:39.490Z,12.10
2019-03-31T00:38:08.102Z,12.10
2019-03-31T00:40:36.605Z,12.10
2019-03-31T00:43:05.140Z,12.10
2019-03-31T00:45:33.728Z,12.10
2019-03-31T00:48:02.297Z,12.10
2019-03-31T00:50:30.868Z,12.10
2019-03-31T00:52:59.372Z,12.10
2019-03-31T00:55:27.832Z,12.10
2019-03-31T00:57:56.300Z,12.10
2019-03-31T01:00:43.523Z,12.00
2019-03-31T01:03:12.196Z,12.10
2019-03-31T01:05:42.498Z,12.10
2019-03-31T01:08:11.840Z,12.10
2019-03-31T01:10:41.724Z,12.00
2019-03-31T01:13:10.564Z,12.00
2019-03-31T01:15:39.481Z,12.10
2019-03-31T01:18:08.839Z,12.00
2019-03-31T01:20:37.375Z,12.00
2019-03-31T01:23:06.789Z,11.90
2019-03-31T01:25:35.727Z,11.90
2019-03-31T01:28:04.548Z,11.80
2019-03-31T01:30:33.113Z,11.70
2019-03-31T01:33:01.716Z,11.70
2019-03-31T01:35:31.690Z,11.70
2019-03-31T01:38:00.227Z,11.70
2019-03-31T01:40:28.940Z,11.70
2019-03-31T01:42:57.474Z,11.70
2019-03-31T01:45:26.044Z,11.70
2019-03-31T01:47:54.580Z,11.60
2019-03-31T01:50:23.149Z,11.60
2019-03-31T01:52:51.707Z,11.60
2019-03-31T01:55:20.174Z,11.60
2019-03-31T01:57:48.667Z,11.60
2019-03-31T02:00:25.293Z,11.60
2019-03-31T02:02:53.752Z,11.50
2019-03-31T02:05:22.285Z,11.60
2019-03-31T02:07:50.819Z,11.50
2019-03-31T02:10:19.349Z,11.50
2019-03-31T02:12:47.871Z,11.40
2019-03-31T02:15:16.433Z,11.40
2019-03-31T02:17:44.979Z,11.30
2019-03-31T02:20:13.588Z,11.30
2019-03-31T02:22:42.048Z,11.30
2019-03-31T02:25:10.590Z,11.30
2019-03-31T02:27:39.340Z,11.20
2019-03-31T02:30:07.936Z,11.20
2019-03-31T02:32:36.439Z,11.10
2019-03-31T02:35:05.916Z,11.10
2019-03-31T02:37:34.471Z,11.10
2019-03-31T02:40:03.533Z,11.00
2019-03-31T02:42:32.049Z,11.00
2019-03-31T02:45:00.827Z,11.00
2019-03-31T02:47:29.424Z,11.00
2019-03-31T02:49:57.948Z,10.90
2019-03-31T02:52:26.560Z,10.90
2019-03-31T02:54:55.100Z,10.90
2019-03-31T02:57:24.531Z,10.90
2019-03-31T02:59:53.565Z,11.00
2019-03-31T03:02:40.551Z,11.00
2019-03-31T03:04:56.200Z,11.00
2019-03-31T03:07:26.601Z,11.00
2019-03-31T03:09:57.078Z,11.00
2019-03-31T03:12:27.783Z,10.90
2019-03-31T03:14:58.976Z,10.90
2019-03-31T03:17:27.476Z,10.90
2019-03-31T03:19:56.007Z,10.90
2019-03-31T03:22:24.571Z,10.80
2019-03-31T03:24:53.092Z,10.80
2019-03-31T03:27:21.660Z,10.80
2019-03-31T03:29:50.124Z,10.70
2019-03-31T03:32:18.679Z,10.70
2019-03-31T03:34:47.471Z,10.70
2019-03-31T03:37:16.134Z,10.70
2019-03-31T03:39:44.925Z,10.70
2019-03-31T03:42:15.065Z,10.60
2019-03-31T03:44:45.248Z,10.60
2019-03-31T03:47:13.782Z,10.60
2019-03-31T03:49:42.294Z,10.70
2019-03-31T03:52:10.848Z,10.70
2019-03-31T03:54:39.316Z,10.70
2019-03-31T03:57:07.847Z,10.70
2019-03-31T03:59:36.308Z,10.70
2019-03-31T04:02:04.804Z,10.70
2019-03-31T04:04:33.288Z,10.70
2019-03-31T04:07:01.758Z,10.60
2019-03-31T04:09:30.257Z,10.70
2019-03-31T04:11:58.880Z,10.60
2019-03-31T04:14:27.413Z,10.60
2019-03-31T04:16:55.909Z,10.60
2019-03-31T04:19:24.410Z,10.60
2019-03-31T04:21:53.016Z,10.70
2019-03-31T04:24:21.550Z,10.60
2019-03-31T04:26:50.099Z,10.60
2019-03-31T04:29:18.586Z,10.50
2019-03-31T04:31:47.130Z,10.60
2019-03-31T04:34:15.621Z,10.50
2019-03-31T04:36:44.087Z,10.50
2019-03-31T04:39:12.544Z,10.50
2019-03-31T04:41:41.086Z,10.50
2019-03-31T04:44:09.601Z,10.50
2019-03-31T04:46:38.065Z,10.50
2019-03-31T04:49:06.549Z,10.50
2019-03-31T04:51:36.678Z,10.50
2019-03-31T04:54:05.516Z,10.50
2019-03-31T04:56:34.028Z,10.40
2019-03-31T04:59:02.484Z,10.40
2019-03-31T05:01:31.024Z,10.50
2019-03-31T05:04:04.997Z,10.50
2019-03-31T05:06:30.427Z,10.50
2019-03-31T05:08:58.916Z,10.50
2019-03-31T05:11:27.528Z,10.50
2019-03-31T05:13:57.603Z,10.50
2019-03-31T05:16:26.069Z,10.50
2019-03-31T05:18:54.568Z,10.40
2019-03-31T05:21:23.028Z,10.40
2019-03-31T05:23:51.500Z,10.40
2019-03-31T05:26:19.989Z,10.30
2019-03-31T05:28:48.533Z,10.40
2019-03-31T05:31:17.004Z,10.40
2019-03-31T05:33:45.508Z,10.40
2019-03-31T05:36:13.988Z,10.40
2019-03-31T05:39:01.812Z,10.30
2019-03-31T05:41:30.273Z,10.20
2019-03-31T05:44:05.533Z,10.20
2019-03-31T05:46:28.962Z,10.10
2019-03-31T05:48:57.506Z,10.10
2019-03-31T05:51:26.044Z,10.00
2019-03-31T05:53:54.607Z,9.90
2019-03-31T05:56:23.064Z,9.80
2019-03-31T05:58:51.529Z,9.80
2019-03-31T06:01:20.095Z,9.70
2019-03-31T06:03:48.578Z,9.70
2019-03-31T06:06:17.188Z,9.60
2019-03-31T06:08:45.672Z,9.60
2019-03-31T06:11:14.152Z,9.50
2019-03-31T06:13:42.691Z,9.50
2019-03-31T06:16:11.425Z,9.50
2019-03-31T06:18:39.947Z,9.50
2019-03-31T06:21:08.416Z,9.60
2019-03-31T06:23:36.993Z,9.60
2019-03-31T06:26:05.538Z,9.50
2019-03-31T06:28:34.065Z,9.50
2019-03-31T06:31:02.672Z,9.50
2019-03-31T06:33:31.141Z,9.50
2019-03-31T06:35:59.611Z,9.50
2019-03-31T06:38:28.178Z,9.50
2019-03-31T06:40:57.895Z,9.50
2019-03-31T06:43:26.494Z,9.60
2019-03-31T06:45:55.028Z,9.60
2019-03-31T06:48:23.515Z,9.60
2019-03-31T06:50:51.981Z,9.60
2019-03-31T06:53:20.496Z,9.60
2019-03-31T06:55:49.134Z,9.60
2019-03-31T06:58:17.642Z,9.70
2019-03-31T07:00:46.128Z,9.80
2019-03-31T07:03:14.791Z,9.80
2019-03-31T07:05:44.923Z,9.80
2019-03-31T07:08:13.536Z,9.90
2019-03-31T07:10:42.167Z,10.00
2019-03-31T07:13:10.641Z,10.20
2019-03-31T07:15:39.140Z,10.10
2019-03-31T07:18:07.649Z,10.10
2019-03-31T07:20:36.120Z,10.20
2019-03-31T07:23:04.690Z,10.20
2019-03-31T07:25:33.260Z,10.60
2019-03-31T07:28:01.733Z,10.70
2019-03-31T07:30:30.269Z,10.70
2019-03-31T07:32:58.819Z,10.70
2019-03-31T07:35:46.753Z,10.70
2019-03-31T07:38:15.338Z,10.60
2019-03-31T07:40:44.099Z,10.50
2019-03-31T07:43:12.845Z,10.20
2019-03-31T07:45:41.642Z,10.20
2019-03-31T07:48:17.405Z,10.30
2019-03-31T07:50:50.572Z,10.20
2019-03-31T07:53:22.000Z,10.20
2019-03-31T07:55:53.774Z,10.30
2019-03-31T07:58:24.778Z,10.30
2019-03-31T08:00:56.006Z,10.40
2019-03-31T08:03:27.433Z,10.60
2019-03-31T08:05:59.210Z,10.70
2019-03-31T08:08:30.776Z,10.90
2019-03-31T08:11:02.039Z,10.90
2019-03-31T08:13:33.194Z,10.80
2019-03-31T08:16:04.256Z,10.70
2019-03-31T08:18:35.371Z,10.50
2019-03-31T08:21:06.686Z,10.50
2019-03-31T08:23:37.433Z,10.40
2019-03-31T08:26:10.041Z,10.50
2019-03-31T08:28:41.931Z,10.50
2019-03-31T08:31:13.567Z,10.40
2019-03-31T08:33:44.768Z,10.60
2019-03-31T08:36:17.210Z,11.10
2019-03-31T08:38:48.439Z,11.60
2019-03-31T08:41:19.997Z,11.60
2019-03-31T08:43:52.023Z,11.90
2019-03-31T08:46:23.246Z,12.20
2019-03-31T08:48:54.922Z,12.50
2019-03-31T08:51:26.739Z,12.70
2019-03-31T08:53:58.679Z,13.20
2019-03-31T08:56:30.240Z,13.00
2019-03-31T08:59:01.773Z,12.70
2019-03-31T09:01:32.513Z,12.60
2019-03-31T09:04:03.789Z,12.30
2019-03-31T09:06:35.271Z,12.40
2019-03-31T09:09:10.251Z,12.50
2019-03-31T09:11:41.831Z,13.10
2019-03-31T09:14:13.273Z,13.80
2019-03-31T09:16:43.879Z,14.10
2019-03-31T09:19:15.376Z,14.10
2019-03-31T09:21:49.851Z,14.40
2019-03-31T09:24:21.651Z,14.70
2019-03-31T09:26:52.852Z,14.50
2019-03-31T09:29:24.260Z,14.60
2019-03-31T09:31:55.607Z,14.60
2019-03-31T09:34:27.354Z,14.60
2019-03-31T09:36:59.025Z,14.60
2019-03-31T09:39:31.448Z,14.70
2019-03-31T09:42:03.099Z,15.10
2019-03-31T09:44:34.558Z,15.60
2019-03-31T09:47:06.346Z,15.70
2019-03-31T09:49:37.695Z,15.70
2019-03-31T09:52:08.901Z,15.40
2019-03-31T09:54:40.248Z,15.10
2019-03-31T09:57:11.999Z,15.60
2019-03-31T09:59:43.934Z,16.00
2019-03-31T10:02:15.336Z,16.30
2019-03-31T10:04:46.546Z,15.50
2019-03-31T10:07:37.394Z,14.90
2019-03-31T10:10:09.618Z,14.70
2019-03-31T10:12:41.042Z,14.90
2019-03-31T10:15:13.479Z,15.30
2019-03-31T10:17:44.353Z,15.60
2019-03-31T10:20:15.975Z,15.60
2019-03-31T10:22:47.661Z,15.30
2019-03-31T10:25:18.878Z,15.50
2019-03-31T10:27:53.423Z,15.50
2019-03-31T10:30:38.492Z,16.20
2019-03-31T10:33:10.048Z,16.90
2019-03-31T10:35:41.943Z,17.10
2019-03-31T10:38:12.983Z,17.10
2019-03-31T10:40:44.969Z,17.30
2019-03-31T10:43:16.892Z,17.20
2019-03-31T10:45:50.069Z,17.10
2019-03-31T10:48:21.422Z,17.60
2019-03-31T10:50:53.371Z,17.50
2019-03-31T10:53:25.148Z,17.30
2019-03-31T10:55:56.602Z,17.50
2019-03-31T10:58:27.903Z,17.80
2019-03-31T11:01:00.117Z,18.00
2019-03-31T11:03:33.189Z,18.00
2019-03-31T11:06:05.574Z,18.50
2019-03-31T11:08:36.785Z,18.00
2019-03-31T11:11:08.283Z,17.50
2019-03-31T11:13:40.242Z,17.00
2019-03-31T11:16:11.544Z,16.60
2019-03-31T11:18:42.565Z,16.40
2019-03-31T11:21:15.573Z,17.10
2019-03-31T11:23:46.908Z,17.30
2019-03-31T11:26:19.307Z,16.80
2019-03-31T11:28:54.459Z,16.90
2019-03-31T11:31:26.229Z,17.00
2019-03-31T11:33:57.321Z,16.60
2019-03-31T11:36:28.956Z,16.40
2019-03-31T11:39:00.623Z,16.50
2019-03-31T11:41:32.274Z,16.60
2019-03-31T11:44:03.593Z,16.50
2019-03-31T11:46:34.967Z,16.80
2019-03-31T11:49:06.301Z,17.10
2019-03-31T11:51:38.163Z,16.40
2019-03-31T11:54:09.645Z,16.20
2019-03-31T11:56:41.263Z,16.30
2019-03-31T11:59:13.100Z,16.60
2019-03-31T12:01:44.686Z,17.00
2019-03-31T12:04:14.822Z,17.40
2019-03-31T12:06:46.217Z,17.30
2019-03-31T12:09:18.630Z,16.50
2019-03-31T12:11:49.993Z,16.40
2019-03-31T12:14:21.683Z,17.00
2019-03-31T12:16:53.203Z,17.00
2019-03-31T12:19:24.546Z,16.70
2019-03-31T12:21:57.773Z,16.70
2019-03-31T12:24:30.339Z,16.90
2019-03-31T12:27:01.491Z,17.40
2019-03-31T12:29:44.681Z,17.60
2019-03-31T12:32:16.436Z,17.30
2019-03-31T12:34:48.144Z,17.70
2019-03-31T12:37:19.509Z,18.00
2019-03-31T12:39:51.425Z,18.10
2019-03-31T12:42:23.589Z,17.70
2019-03-31T12:44:54.677Z,17.00
2019-03-31T12:47:26.228Z,16.90
2019-03-31T12:49:59.087Z,17.50
2019-03-31T12:52:30.259Z,17.30
2019-03-31T12:55:02.235Z,17.40
2019-03-31T12:57:34.059Z,17.20
2019-03-31T13:00:07.068Z,17.40
2019-03-31T13:02:40.145Z,17.70
2019-03-31T13:05:12.002Z,17.20
2019-03-31T13:07:55.671Z,17.00
2019-03-31T13:10:17.124Z,17.20
2019-03-31T13:12:48.247Z,17.60
2019-03-31T13:15:20.067Z,17.60
2019-03-31T13:17:51.665Z,17.40
2019-03-31T13:20:23.065Z,17.30
2019-03-31T13:22:54.266Z,17.60
2019-03-31T13:25:24.532Z,17.70
2019-03-31T13:27:55.612Z,17.70
2019-03-31T13:30:25.530Z,17.40
2019-03-31T13:32:56.753Z,17.30
2019-03-31T13:35:28.196Z,17.40
2019-03-31T13:38:10.480Z,17.20
2019-03-31T13:40:29.295Z,17.10
2019-03-31T13:43:00.186Z,17.30
2019-03-31T13:45:31.244Z,17.30
2019-03-31T13:48:02.165Z,17.30
2019-03-31T13:50:32.420Z,17.40
2019-03-31T13:53:02.175Z,17.40
2019-03-31T13:55:33.975Z,17.40
2019-03-31T13:58:06.054Z,17.30
2019-03-31T14:00:41.034Z,17.30
2019-03-31T14:03:11.225Z,17.30
2019-03-31T14:05:42.352Z,17.30
2019-03-31T14:08:25.002Z,17.20
2019-03-31T14:10:43.890Z,17.20
2019-03-31T14:13:15.685Z,16.80
2019-03-31T14:15:47.293Z,16.90
2019-03-31T14:18:19.321Z,17.00
2019-03-31T14:20:49.832Z,16.90
2019-03-31T14:23:23.941Z,16.80
2019-03-31T14:25:55.494Z,16.90
2019-03-31T14:28:26.759Z,16.80
2019-03-31T14:30:58.913Z,16.70
2019-03-31T14:33:29.407Z,16.00
2019-03-31T14:36:00.804Z,16.40
2019-03-31T14:38:39.951Z,16.30
2019-03-31T14:41:06.114Z,16.20
2019-03-31T14:43:36.740Z,16.10
2019-03-31T14:46:08.394Z,16.00
2019-03-31T14:48:40.005Z,16.10
2019-03-31T14:51:32.134Z,16.20
2019-03-31T14:54:03.264Z,16.20
2019-03-31T14:56:34.772Z,16.00
2019-03-31T14:59:08.560Z,16.10
2019-03-31T15:01:40.185Z,16.00
2019-03-31T15:04:11.931Z,16.00
2019-03-31T15:06:42.374Z,16.00
2019-03-31T15:09:13.810Z,15.90
2019-03-31T15:11:45.597Z,16.10
2019-03-31T15:14:17.148Z,16.30
2019-03-31T15:16:48.573Z,16.00
2019-03-31T15:19:20.280Z,15.90
2019-03-31T15:21:51.670Z,15.80
2019-03-31T15:24:23.537Z,15.80
2019-03-31T15:26:55.547Z,15.70
2019-03-31T15:29:29.371Z,15.60
2019-03-31T15:32:00.638Z,15.50
2019-03-31T15:34:32.410Z,15.30
2019-03-31T15:37:04.702Z,15.40
2019-03-31T15:39:36.127Z,15.40
2019-03-31T15:42:07.861Z,15.40
2019-03-31T15:44:42.420Z,15.30
2019-03-31T15:47:13.520Z,15.30
2019-03-31T15:49:44.742Z,15.40
2019-03-31T15:52:16.817Z,15.30
2019-03-31T15:54:48.102Z,15.30
2019-03-31T15:57:20.770Z,15.20
2019-03-31T15:59:59.789Z,15.00
2019-03-31T16:02:32.020Z,15.00
2019-03-31T16:05:03.287Z,15.10
2019-03-31T16:07:34.364Z,14.90
2019-03-31T16:10:07.695Z,14.80
2019-03-31T16:12:39.098Z,14.70
2019-03-31T16:15:12.092Z,14.70
2019-03-31T16:17:43.375Z,14.50
2019-03-31T16:20:15.322Z,14.60
2019-03-31T16:22:46.623Z,14.70
2019-03-31T16:25:24.939Z,14.60
2019-03-31T16:27:54.819Z,14.50
2019-03-31T16:30:25.944Z,14.40
2019-03-31T16:32:57.130Z,14.30
2019-03-31T16:35:28.830Z,14.20
2019-03-31T16:37:58.828Z,14.20
2019-03-31T16:40:29.096Z,14.20
2019-03-31T16:43:00.363Z,14.10
2019-03-31T16:45:31.492Z,14.00
2019-03-31T16:48:03.156Z,14.00
2019-03-31T16:50:34.579Z,14.00
2019-03-31T16:53:06.298Z,13.90
2019-03-31T16:55:37.895Z,13.80
2019-03-31T16:58:09.758Z,13.70
2019-03-31T17:00:41.474Z,13.70
2019-03-31T17:03:12.817Z,13.80
2019-03-31T17:05:44.656Z,13.70
2019-03-31T17:08:16.075Z,13.70
2019-03-31T17:10:47.809Z,13.60
2019-03-31T17:13:19.329Z,13.50
2019-03-31T17:15:49.477Z,13.50
2019-03-31T17:18:20.337Z,13.50
2019-03-31T17:20:52.391Z,13.40
2019-03-31T17:23:23.268Z,13.40
2019-03-31T17:25:54.701Z,13.30
2019-03-31T17:28:26.690Z,13.20
2019-03-31T17:30:58.374Z,13.20
2019-03-31T17:33:31.210Z,13.10
2019-03-31T17:36:02.647Z,13.10
2019-03-31T17:38:34.397Z,13.00
2019-03-31T17:41:09.766Z,12.90
2019-03-31T17:43:41.429Z,12.90
2019-03-31T17:46:12.773Z,12.80
2019-03-31T17:48:44.019Z,12.80
2019-03-31T17:51:15.757Z,12.80
2019-03-31T17:53:47.683Z,12.90
2019-03-31T17:56:19.708Z,12.80
2019-03-31T17:58:51.577Z,12.70
2019-03-31T18:01:22.968Z,12.60
2019-03-31T18:03:54.767Z,12.50
2019-03-31T18:06:24.901Z,12.40
2019-03-31T18:08:57.535Z,12.40
2019-03-31T18:11:29.358Z,12.40
2019-03-31T18:14:00.982Z,12.40
2019-03-31T18:16:32.306Z,12.40
2019-03-31T18:19:04.003Z,12.40
2019-03-31T18:21:36.077Z,12.30
2019-03-31T18:24:07.408Z,12.30
2019-03-31T18:26:38.057Z,12.20
2019-03-31T18:29:10.298Z,12.10
2019-03-31T18:31:41.707Z,12.00
2019-03-31T18:34:13.091Z,12.00
2019-03-31T18:36:44.580Z,12.00
2019-03-31T18:39:15.762Z,12.00
2019-03-31T18:41:47.285Z,11.90
2019-03-31T18:44:18.610Z,11.90
2019-03-31T18:46:50.095Z,11.90
2019-03-31T18:49:20.772Z,11.80
2019-03-31T18:54:46.289Z,11.70
2019-03-31T18:57:22.322Z,11.70
2019-03-31T19:00:03.613Z,11.70
2019-03-31T19:02:39.144Z,11.60
2019-03-31T19:05:14.349Z,11.50
2019-03-31T19:07:56.388Z,11.60
2019-03-31T19:10:49.517Z,11.50
2019-03-31T19:13:19.544Z,11.50
2019-03-31T19:16:08.240Z,11.50
2019-03-31T19:18:41.519Z,11.40
2019-03-31T19:21:14.054Z,11.40
2019-03-31T19:24:05.923Z,11.40
2019-03-31T19:26:48.860Z,11.30
2019-03-31T19:29:21.038Z,11.30
2019-03-31T19:31:59.202Z,11.30
2019-03-31T19:34:44.015Z,11.20
2019-03-31T19:37:28.835Z,11.30
2019-03-31T19:40:17.599Z,11.20
2019-03-31T19:43:06.168Z,11.10
2019-03-31T19:45:38.635Z,11.10
2019-03-31T19:48:16.152Z,11.10
2019-03-31T19:50:51.587Z,11.10
2019-03-31T19:53:30.181Z,11.00
2019-03-31T19:56:07.700Z,11.00
2019-03-31T19:58:46.332Z,11.00
2019-03-31T20:01:19.202Z,10.90
2019-03-31T20:04:07.209Z,10.90
2019-03-31T20:06:48.745Z,10.80
2019-03-31T20:09:25.212Z,10.80
2019-03-31T20:11:57.902Z,10.80
2019-03-31T20:14:47.262Z,10.70
2019-03-31T20:17:20.326Z,10.70
2019-03-31T20:19:56.008Z,10.70
2019-03-31T20:22:34.690Z,10.60
2019-03-31T20:25:26.523Z,10.60
2019-03-31T20:28:15.096Z,10.60
2019-03-31T20:31:04.139Z,10.60
2019-03-31T20:33:45.732Z,10.50
2019-03-31T20:36:19.037Z,10.50
2019-03-31T20:39:02.480Z,10.50
2019-03-31T20:41:44.960Z,10.40
2019-03-31T20:44:16.299Z,10.30
2019-03-31T20:46:47.461Z,10.30
2019-03-31T20:49:18.058Z,10.20
2019-03-31T20:51:49.226Z,10.20
2019-03-31T20:54:20.404Z,10.10
2019-03-31T20:56:51.861Z,10.10
2019-03-31T20:59:23.468Z,10.10
2019-03-31T21:01:55.712Z,10.00
2019-03-31T21:04:27.368Z,10.00
2019-03-31T21:06:58.817Z,9.90
2019-03-31T21:09:43.772Z,9.90
2019-03-31T21:12:03.259Z,9.80
2019-03-31T21:14:34.894Z,9.80
2019-03-31T21:17:07.202Z,9.70
2019-03-31T21:19:38.432Z,9.70
2019-03-31T21:22:09.520Z,9.70
2019-03-31T21:24:40.651Z,9.60
2019-03-31T21:27:13.119Z,9.60
2019-03-31T21:29:45.542Z,9.50
2019-03-31T21:32:14.122Z,9.40
2019-03-31T21:34:42.665Z,9.40
2019-03-31T21:37:11.129Z,9.30
2019-03-31T21:39:39.574Z,9.20
2019-03-31T21:42:08.124Z,9.20
2019-03-31T21:44:36.588Z,9.20
2019-03-31T21:47:05.049Z,9.20
2019-03-31T21:49:33.523Z,9.10
2019-03-31T21:52:02.016Z,9.00
2019-03-31T21:54:30.542Z,9.10
2019-03-31T21:56:59.263Z,9.00
2019-03-31T21:59:27.759Z,8.90
2019-03-31T22:01:56.203Z,8.90
2019-03-31T22:04:24.659Z,8.80
2019-03-31T22:06:53.140Z,8.80
2019-03-31T22:09:21.619Z,8.80
2019-03-31T22:11:50.112Z,8.70
2019-03-31T22:14:18.627Z,8.70
2019-03-31T22:16:47.994Z,8.70
2019-03-31T22:19:16.521Z,8.60
2019-03-31T22:21:45.000Z,8.60
2019-03-31T22:24:13.468Z,8.40
2019-03-31T22:26:41.948Z,8.50
2019-03-31T22:29:10.561Z,8.40
2019-03-31T22:31:39.089Z,8.40
2019-03-31T22:34:07.631Z,8.20
2019-03-31T22:36:36.111Z,8.20
2019-03-31T22:39:05.999Z,8.20
2019-03-31T22:41:34.561Z,8.00
2019-03-31T22:44:03.504Z,8.00
2019-03-31T22:46:31.960Z,7.90
2019-03-31T22:49:00.444Z,7.90
2019-03-31T22:51:28.899Z,7.80
2019-03-31T22:53:57.361Z,7.80
2019-03-31T22:56:25.909Z,7.80
2019-03-31T22:58:54.359Z,7.70
2019-03-31T23:01:22.983Z,7.60
2019-03-31T23:03:51.444Z,7.60
2019-03-31T23:06:19.978Z,7.50
2019-03-31T23:08:48.504Z,7.50
2019-03-31T23:11:17.003Z,7.50
2019-03-31T23:13:45.495Z,7.50
2019-03-31T23:16:14.256Z,7.40
2019-03-31T23:18:42.841Z,7.40
2019-03-31T23:21:11.323Z,7.20
2019-03-31T23:23:39.789Z,7.30
2019-03-31T23:26:09.775Z,7.20
2019-03-31T23:28:39.967Z,7.20
2019-03-31T23:31:08.416Z,7.10
2019-03-31T23:33:36.867Z,7.20
2019-03-31T23:36:05.342Z,7.10
2019-03-31T23:38:33.843Z,7.00
2019-03-31T23:41:02.296Z,7.00
2019-03-31T23:43:30.792Z,6.90
2019-03-31T23:45:59.275Z,6.90
2019-03-31T23:48:27.818Z,6.90
2019-03-31T23:50:56.352Z,6.80
2019-03-31T23:53:24.964Z,6.70
2019-03-31T23:55:53.420Z,6.70
2019-03-31T23:58:21.890Z,6.70
